sensor_id;sensor_type;location;lat;lon;timestamp;pressure;altitude;pressure_sealevel;temperature;humidity
39487;BME280;25173;50.430;18.926;2023-11-18T00:02:51;98266.31;;;6.03;77.79
39487;BME280;25173;50.430;18.926;2023-11-18T00:05:52;98265.84;;;6.06;77.87
39487;BME280;25173;50.430;18.926;2023-11-18T00:08:52;98275.91;;;6.10;77.67
39487;BME280;25173;50.430;18.926;2023-11-18T00:11:53;98273.56;;;6.14;77.70
39487;BME280;25173;50.430;18.926;2023-11-18T00:14:54;98267.16;;;6.20;77.82
39487;BME280;25173;50.430;18.926;2023-11-18T00:17:54;98272.66;;;6.25;77.55
39487;BME280;25173;50.430;18.926;2023-11-18T00:21:01;98281.34;;;6.27;77.43
39487;BME280;25173;50.430;18.926;2023-11-18T00:24:02;98279.13;;;6.24;77.39
39487;BME280;25173;50.430;18.926;2023-11-18T00:27:04;98286.19;;;6.25;77.54
39487;BME280;25173;50.430;18.926;2023-11-18T00:30:06;98277.09;;;6.31;77.55
39487;BME280;25173;50.430;18.926;2023-11-18T00:33:14;98288.50;;;6.33;77.42
39487;BME280;25173;50.430;18.926;2023-11-18T00:36:15;98282.19;;;6.28;77.37
39487;BME280;25173;50.430;18.926;2023-11-18T00:39:16;98301.00;;;6.22;77.49
39487;BME280;25173;50.430;18.926;2023-11-18T00:42:16;98297.09;;;6.02;78.72
39487;BME280;25173;50.430;18.926;2023-11-18T00:45:17;98295.88;;;5.93;79.59
39487;BME280;25173;50.430;18.926;2023-11-18T00:48:18;98296.91;;;5.92;79.87
39487;BME280;25173;50.430;18.926;2023-11-18T00:51:19;98288.81;;;5.92;79.83
39487;BME280;25173;50.430;18.926;2023-11-18T00:54:19;98295.28;;;5.91;79.67
39487;BME280;25173;50.430;18.926;2023-11-18T00:57:20;98282.59;;;5.91;79.69
39487;BME280;25173;50.430;18.926;2023-11-18T01:00:21;98283.97;;;5.94;79.55
39487;BME280;25173;50.430;18.926;2023-11-18T01:03:22;98276.44;;;5.96;79.30
39487;BME280;25173;50.430;18.926;2023-11-18T01:06:22;98289.22;;;6.00;79.13
39487;BME280;25173;50.430;18.926;2023-11-18T01:09:23;98288.75;;;6.03;79.14
39487;BME280;25173;50.430;18.926;2023-11-18T01:12:25;98288.59;;;6.10;78.98
39487;BME280;25173;50.430;18.926;2023-11-18T01:15:26;98289.44;;;6.10;78.75
39487;BME280;25173;50.430;18.926;2023-11-18T01:18:27;98284.91;;;6.16;78.79
39487;BME280;25173;50.430;18.926;2023-11-18T01:21:28;98281.75;;;6.19;78.53
39487;BME280;25173;50.430;18.926;2023-11-18T01:24:29;98274.22;;;6.21;78.24
39487;BME280;25173;50.430;18.926;2023-11-18T01:27:29;98271.91;;;6.13;78.03
39487;BME280;25173;50.430;18.926;2023-11-18T01:30:30;98282.88;;;6.06;78.39
39487;BME280;25173;50.430;18.926;2023-11-18T01:33:31;98271.72;;;6.03;78.70
39487;BME280;25173;50.430;18.926;2023-11-18T01:36:38;98272.78;;;6.02;78.88
39487;BME280;25173;50.430;18.926;2023-11-18T01:39:38;98264.78;;;6.07;78.96
39487;BME280;25173;50.430;18.926;2023-11-18T01:42:42;98265.31;;;6.09;78.76
39487;BME280;25173;50.430;18.926;2023-11-18T01:45:43;98264.69;;;6.18;78.81
39487;BME280;25173;50.430;18.926;2023-11-18T01:48:44;98268.22;;;6.19;78.42
39487;BME280;25173;50.430;18.926;2023-11-18T01:51:46;98267.84;;;6.27;78.44
39487;BME280;25173;50.430;18.926;2023-11-18T01:54:47;98264.53;;;6.25;78.00
39487;BME280;25173;50.430;18.926;2023-11-18T01:57:49;98265.03;;;6.22;77.83
39487;BME280;25173;50.430;18.926;2023-11-18T02:00:51;98270.25;;;6.12;77.84
39487;BME280;25173;50.430;18.926;2023-11-18T02:03:52;98271.31;;;6.11;78.25
39487;BME280;25173;50.430;18.926;2023-11-18T02:06:53;98273.56;;;6.14;78.07
39487;BME280;25173;50.430;18.926;2023-11-18T02:09:55;98267.47;;;6.07;77.77
39487;BME280;25173;50.430;18.926;2023-11-18T02:13:06;98265.59;;;6.07;77.73
39487;BME280;25173;50.430;18.926;2023-11-18T02:16:08;98274.75;;;6.06;77.93
39487;BME280;25173;50.430;18.926;2023-11-18T02:19:20;98281.06;;;6.12;77.96
39487;BME280;25173;50.430;18.926;2023-11-18T02:22:23;98284.09;;;6.15;77.90
39487;BME280;25173;50.430;18.926;2023-11-18T02:25:26;98285.34;;;6.24;77.92
39487;BME280;25173;50.430;18.926;2023-11-18T02:28:29;98290.59;;;6.31;77.79
39487;BME280;25173;50.430;18.926;2023-11-18T02:31:34;98278.50;;;6.34;77.44
39487;BME280;25173;50.430;18.926;2023-11-18T02:34:40;98277.75;;;6.38;77.73
39487;BME280;25173;50.430;18.926;2023-11-18T02:37:44;98285.38;;;6.41;77.61
39487;BME280;25173;50.430;18.926;2023-11-18T02:40:48;98283.81;;;6.45;77.48
39487;BME280;25173;50.430;18.926;2023-11-18T02:43:54;98290.47;;;6.54;77.51
39487;BME280;25173;50.430;18.926;2023-11-18T02:46:55;98285.56;;;6.51;77.20
39487;BME280;25173;50.430;18.926;2023-11-18T02:49:57;98287.19;;;6.52;77.69
39487;BME280;25173;50.430;18.926;2023-11-18T02:53:05;98296.41;;;6.51;77.88
39487;BME280;25173;50.430;18.926;2023-11-18T02:56:07;98301.53;;;6.53;77.83
39487;BME280;25173;50.430;18.926;2023-11-18T02:59:08;98295.56;;;6.51;77.47
39487;BME280;25173;50.430;18.926;2023-11-18T03:02:11;98296.06;;;6.48;77.71
39487;BME280;25173;50.430;18.926;2023-11-18T03:05:12;98300.31;;;6.44;77.51
39487;BME280;25173;50.430;18.926;2023-11-18T03:08:12;98308.84;;;6.36;77.56
39487;BME280;25173;50.430;18.926;2023-11-18T03:11:13;98307.66;;;6.32;77.87
39487;BME280;25173;50.430;18.926;2023-11-18T03:14:14;98307.41;;;6.33;77.83
39487;BME280;25173;50.430;18.926;2023-11-18T03:17:15;98302.91;;;6.39;78.09
39487;BME280;25173;50.430;18.926;2023-11-18T03:20:16;98315.72;;;6.43;77.71
39487;BME280;25173;50.430;18.926;2023-11-18T03:23:17;98314.31;;;6.41;77.38
39487;BME280;25173;50.430;18.926;2023-11-18T03:26:19;98319.72;;;6.41;77.66
39487;BME280;25173;50.430;18.926;2023-11-18T03:29:19;98317.84;;;6.41;77.65
39487;BME280;25173;50.430;18.926;2023-11-18T03:32:20;98310.31;;;6.43;77.56
39487;BME280;25173;50.430;18.926;2023-11-18T03:35:21;98315.72;;;6.43;77.61
39487;BME280;25173;50.430;18.926;2023-11-18T03:38:22;98319.50;;;6.42;77.47
39487;BME280;25173;50.430;18.926;2023-11-18T03:41:24;98320.72;;;6.35;77.25
39487;BME280;25173;50.430;18.926;2023-11-18T03:44:24;98319.53;;;6.31;77.47
39487;BME280;25173;50.430;18.926;2023-11-18T03:47:25;98325.28;;;6.34;77.41
39487;BME280;25173;50.430;18.926;2023-11-18T03:50:25;98334.47;;;6.33;77.44
39487;BME280;25173;50.430;18.926;2023-11-18T03:53:26;98342.59;;;6.33;77.59
39487;BME280;25173;50.430;18.926;2023-11-18T03:56:27;98338.91;;;6.39;77.46
39487;BME280;25173;50.430;18.926;2023-11-18T03:59:27;98345.50;;;6.43;77.34
39487;BME280;25173;50.430;18.926;2023-11-18T04:02:28;98347.53;;;6.36;76.84
39487;BME280;25173;50.430;18.926;2023-11-18T04:05:29;98347.53;;;6.36;76.97
39487;BME280;25173;50.430;18.926;2023-11-18T04:08:30;98353.41;;;6.33;76.78
39487;BME280;25173;50.430;18.926;2023-11-18T04:11:31;98339.78;;;6.28;77.01
39487;BME280;25173;50.430;18.926;2023-11-18T04:14:31;98342.16;;;6.24;77.20
39487;BME280;25173;50.430;18.926;2023-11-18T04:17:32;98343.56;;;6.27;77.51
39487;BME280;25173;50.430;18.926;2023-11-18T04:20:33;98340.50;;;6.23;77.41
39487;BME280;25173;50.430;18.926;2023-11-18T04:23:36;98344.53;;;6.21;77.18
39487;BME280;25173;50.430;18.926;2023-11-18T04:26:38;98336.97;;;6.23;77.47
39487;BME280;25173;50.430;18.926;2023-11-18T04:29:49;98340.63;;;6.29;77.38
39487;BME280;25173;50.430;18.926;2023-11-18T04:32:50;98337.19;;;6.33;77.29
39487;BME280;25173;50.430;18.926;2023-11-18T04:35:53;98337.84;;;6.40;77.32
39487;BME280;25173;50.430;18.926;2023-11-18T04:38:53;98349.34;;;6.47;77.18
39487;BME280;25173;50.430;18.926;2023-11-18T04:41:55;98345.22;;;6.45;77.03
39487;BME280;25173;50.430;18.926;2023-11-18T04:45:00;98343.34;;;6.45;76.76
39487;BME280;25173;50.430;18.926;2023-11-18T04:48:03;98342.44;;;6.40;76.86
39487;BME280;25173;50.430;18.926;2023-11-18T04:51:08;98344.06;;;6.41;77.09
39487;BME280;25173;50.430;18.926;2023-11-18T04:54:12;98356.19;;;6.38;76.97
39487;BME280;25173;50.430;18.926;2023-11-18T04:57:17;98347.09;;;6.28;77.14
39487;BME280;25173;50.430;18.926;2023-11-18T05:00:18;98347.69;;;6.30;77.43
39487;BME280;25173;50.430;18.926;2023-11-18T05:03:20;98359.19;;;6.25;77.38
39487;BME280;25173;50.430;18.926;2023-11-18T05:06:30;98356.31;;;6.15;77.54
39487;BME280;25173;50.430;18.926;2023-11-18T05:09:31;98357.25;;;6.09;77.86
39487;BME280;25173;50.430;18.926;2023-11-18T05:12:32;98359.25;;;6.13;78.06
39487;BME280;25173;50.430;18.926;2023-11-18T05:15:34;98359.25;;;6.13;78.11
39487;BME280;25173;50.430;18.926;2023-11-18T05:18:37;98357.94;;;6.16;78.24
39487;BME280;25173;50.430;18.926;2023-11-18T05:21:39;98366.31;;;6.14;78.51
39487;BME280;25173;50.430;18.926;2023-11-18T05:24:39;98371.16;;;6.01;78.80
39487;BME280;25173;50.430;18.926;2023-11-18T05:27:40;98369.69;;;5.70;79.77
39487;BME280;25173;50.430;18.926;2023-11-18T05:30:41;98375.69;;;5.37;80.80
39487;BME280;25173;50.430;18.926;2023-11-18T05:33:44;98385.88;;;5.12;81.44
39487;BME280;25173;50.430;18.926;2023-11-18T05:36:50;98389.84;;;4.86;82.40
39487;BME280;25173;50.430;18.926;2023-11-18T05:39:55;98396.03;;;4.75;82.86
39487;BME280;25173;50.430;18.926;2023-11-18T05:43:06;98398.34;;;4.59;83.32
39487;BME280;25173;50.430;18.926;2023-11-18T05:46:16;98406.06;;;4.56;83.87
39487;BME280;25173;50.430;18.926;2023-11-18T05:49:29;98408.66;;;4.51;84.16
39487;BME280;25173;50.430;18.926;2023-11-18T05:52:30;98422.66;;;4.41;84.45
39487;BME280;25173;50.430;18.926;2023-11-18T05:55:30;98419.69;;;4.31;84.61
39487;BME280;25173;50.430;18.926;2023-11-18T05:58:31;98423.50;;;4.23;84.17
39487;BME280;25173;50.430;18.926;2023-11-18T06:01:34;98428.13;;;4.05;83.94
39487;BME280;25173;50.430;18.926;2023-11-18T06:04:35;98431.19;;;3.90;84.37
39487;BME280;25173;50.430;18.926;2023-11-18T06:07:36;98429.84;;;3.81;84.57
39487;BME280;25173;50.430;18.926;2023-11-18T06:10:36;98436.78;;;3.88;84.97
39487;BME280;25173;50.430;18.926;2023-11-18T06:13:42;98435.53;;;3.91;84.83
39487;BME280;25173;50.430;18.926;2023-11-18T06:16:43;98439.72;;;3.87;85.36
39487;BME280;25173;50.430;18.926;2023-11-18T06:19:44;98443.22;;;3.87;85.28
39487;BME280;25173;50.430;18.926;2023-11-18T06:22:45;98456.25;;;3.90;85.49
39487;BME280;25173;50.430;18.926;2023-11-18T06:25:45;98454.19;;;3.93;85.57
39487;BME280;25173;50.430;18.926;2023-11-18T06:28:48;98455.56;;;3.95;85.43
39487;BME280;25173;50.430;18.926;2023-11-18T06:31:52;98450.31;;;4.00;86.22
39487;BME280;25173;50.430;18.926;2023-11-18T06:34:52;98455.66;;;4.07;86.17
39487;BME280;25173;50.430;18.926;2023-11-18T06:37:53;98469.63;;;4.15;85.73
39487;BME280;25173;50.430;18.926;2023-11-18T06:40:54;98473.25;;;4.27;85.66
39487;BME280;25173;50.430;18.926;2023-11-18T06:43:56;98477.28;;;4.37;85.34
39487;BME280;25173;50.430;18.926;2023-11-18T06:46:59;98481.28;;;4.46;85.11
39487;BME280;25173;50.430;18.926;2023-11-18T06:50:02;98483.69;;;4.54;84.77
39487;BME280;25173;50.430;18.926;2023-11-18T06:53:03;98481.59;;;4.56;84.68
39487;BME280;25173;50.430;18.926;2023-11-18T06:56:05;98468.72;;;4.58;84.43
39487;BME280;25173;50.430;18.926;2023-11-18T06:59:07;98483.06;;;4.70;84.52
39487;BME280;25173;50.430;18.926;2023-11-18T07:02:08;98487.69;;;4.81;84.52
39487;BME280;25173;50.430;18.926;2023-11-18T07:05:10;98485.72;;;4.88;84.16
39487;BME280;25173;50.430;18.926;2023-11-18T07:08:12;98485.88;;;5.05;84.43
39487;BME280;25173;50.430;18.926;2023-11-18T07:11:13;98487.31;;;5.19;83.90
39487;BME280;25173;50.430;18.926;2023-11-18T07:14:14;98496.38;;;5.25;83.24
39487;BME280;25173;50.430;18.926;2023-11-18T07:17:17;98494.75;;;5.35;83.62
39487;BME280;25173;50.430;18.926;2023-11-18T07:20:19;98508.28;;;5.47;82.88
39487;BME280;25173;50.430;18.926;2023-11-18T07:23:19;98496.75;;;5.40;82.00
39487;BME280;25173;50.430;18.926;2023-11-18T07:26:20;98502.94;;;5.29;81.91
39487;BME280;25173;50.430;18.926;2023-11-18T07:29:21;98500.25;;;5.29;82.19
39487;BME280;25173;50.430;18.926;2023-11-18T07:32:23;98509.16;;;5.18;82.00
39487;BME280;25173;50.430;18.926;2023-11-18T07:35:25;98499.88;;;5.14;82.33
39487;BME280;25173;50.430;18.926;2023-11-18T07:38:25;98519.13;;;5.17;82.28
39487;BME280;25173;50.430;18.926;2023-11-18T07:41:27;98513.97;;;5.16;81.93
39487;BME280;25173;50.430;18.926;2023-11-18T07:44:28;98516.66;;;5.16;82.28
39487;BME280;25173;50.430;18.926;2023-11-18T07:47:30;98517.25;;;5.18;81.87
39487;BME280;25173;50.430;18.926;2023-11-18T07:50:35;98529.13;;;5.17;81.94
39487;BME280;25173;50.430;18.926;2023-11-18T07:53:38;98533.91;;;5.15;81.92
39487;BME280;25173;50.430;18.926;2023-11-18T07:56:40;98532.56;;;4.94;81.57
39487;BME280;25173;50.430;18.926;2023-11-18T07:59:41;98528.22;;;4.75;82.33
39487;BME280;25173;50.430;18.926;2023-11-18T08:02:42;98536.88;;;4.47;81.96
39487;BME280;25173;50.430;18.926;2023-11-18T08:05:44;98533.59;;;4.26;82.52
39487;BME280;25173;50.430;18.926;2023-11-18T08:08:45;98543.41;;;4.21;83.19
39487;BME280;25173;50.430;18.926;2023-11-18T08:11:48;98542.66;;;4.14;83.27
39487;BME280;25173;50.430;18.926;2023-11-18T08:14:49;98560.53;;;4.08;83.51
39487;BME280;25173;50.430;18.926;2023-11-18T08:17:50;98558.28;;;4.05;83.67
39487;BME280;25173;50.430;18.926;2023-11-18T08:20:51;98563.97;;;4.15;83.72
39487;BME280;25173;50.430;18.926;2023-11-18T08:23:52;98568.78;;;4.13;83.15
39487;BME280;25173;50.430;18.926;2023-11-18T08:26:53;98557.63;;;4.10;83.23
39487;BME280;25173;50.430;18.926;2023-11-18T08:29:54;98575.44;;;4.11;83.35
39487;BME280;25173;50.430;18.926;2023-11-18T08:32:55;98578.75;;;4.13;83.29
39487;BME280;25173;50.430;18.926;2023-11-18T08:35:56;98573.50;;;4.18;83.50
39487;BME280;25173;50.430;18.926;2023-11-18T08:38:57;98584.50;;;4.16;83.20
39487;BME280;25173;50.430;18.926;2023-11-18T08:41:58;98585.31;;;4.17;83.29
39487;BME280;25173;50.430;18.926;2023-11-18T08:44:59;98583.09;;;4.14;83.17
39487;BME280;25173;50.430;18.926;2023-11-18T08:48:02;98576.25;;;4.11;83.10
39487;BME280;25173;50.430;18.926;2023-11-18T08:51:10;98586.81;;;4.13;83.33
39487;BME280;25173;50.430;18.926;2023-11-18T08:54:13;98599.25;;;4.14;83.13
39487;BME280;25173;50.430;18.926;2023-11-18T08:57:22;98604.03;;;4.12;82.77
39487;BME280;25173;50.430;18.926;2023-11-18T09:00:27;98613.84;;;4.06;82.66
39487;BME280;25173;50.430;18.926;2023-11-18T09:03:46;98603.22;;;4.11;82.90
39487;BME280;25173;50.430;18.926;2023-11-18T09:06:52;98605.00;;;4.17;82.44
39487;BME280;25173;50.430;18.926;2023-11-18T09:09:54;98613.94;;;4.18;82.93
39487;BME280;25173;50.430;18.926;2023-11-18T09:12:55;98601.06;;;4.20;82.40
39487;BME280;25173;50.430;18.926;2023-11-18T09:15:57;98604.59;;;4.20;82.20
39487;BME280;25173;50.430;18.926;2023-11-18T09:18:58;98608.88;;;4.28;82.50
39487;BME280;25173;50.430;18.926;2023-11-18T09:22:02;98620.63;;;4.34;81.92
39487;BME280;25173;50.430;18.926;2023-11-18T09:25:06;98633.13;;;4.28;81.27
39487;BME280;25173;50.430;18.926;2023-11-18T09:28:09;98643.31;;;4.26;81.17
39487;BME280;25173;50.430;18.926;2023-11-18T09:31:11;98634.09;;;4.34;81.87
39487;BME280;25173;50.430;18.926;2023-11-18T09:34:12;98646.47;;;4.41;81.26
39487;BME280;25173;50.430;18.926;2023-11-18T09:37:16;98645.88;;;4.39;80.65
39487;BME280;25173;50.430;18.926;2023-11-18T09:40:17;98653.38;;;4.37;80.70
39487;BME280;25173;50.430;18.926;2023-11-18T09:43:45;98654.47;;;4.29;79.43
39487;BME280;25173;50.430;18.926;2023-11-18T09:46:50;98668.31;;;4.15;79.07
39487;BME280;25173;50.430;18.926;2023-11-18T09:49:58;98665.59;;;3.90;79.05
39487;BME280;25173;50.430;18.926;2023-11-18T09:53:06;98671.84;;;3.84;79.80
39487;BME280;25173;50.430;18.926;2023-11-18T09:56:18;98679.13;;;3.83;79.97
39487;BME280;25173;50.430;18.926;2023-11-18T09:59:33;98673.88;;;3.88;80.22
39487;BME280;25173;50.430;18.926;2023-11-18T10:02:39;98676.97;;;3.92;80.24
39487;BME280;25173;50.430;18.926;2023-11-18T10:05:40;98684.25;;;3.92;79.96
39487;BME280;25173;50.430;18.926;2023-11-18T10:08:41;98682.13;;;3.94;79.98
39487;BME280;25173;50.430;18.926;2023-11-18T10:11:49;98685.59;;;4.01;79.96
39487;BME280;25173;50.430;18.926;2023-11-18T10:14:50;98692.38;;;4.10;80.36
39487;BME280;25173;50.430;18.926;2023-11-18T10:17:53;98688.97;;;4.21;80.06
39487;BME280;25173;50.430;18.926;2023-11-18T10:21:00;98681.66;;;4.28;79.49
39487;BME280;25173;50.430;18.926;2023-11-18T10:24:01;98693.28;;;4.28;79.09
39487;BME280;25173;50.430;18.926;2023-11-18T10:27:02;98694.63;;;4.38;79.35
39487;BME280;25173;50.430;18.926;2023-11-18T10:30:06;98686.66;;;4.49;79.13
39487;BME280;25173;50.430;18.926;2023-11-18T10:33:19;98698.25;;;4.50;78.51
39487;BME280;25173;50.430;18.926;2023-11-18T10:36:22;98702.22;;;4.47;78.04
39487;BME280;25173;50.430;18.926;2023-11-18T10:39:29;98697.88;;;4.46;78.26
39487;BME280;25173;50.430;18.926;2023-11-18T10:42:31;98703.66;;;4.50;78.11
39487;BME280;25173;50.430;18.926;2023-11-18T10:45:33;98705.16;;;4.64;78.35
39487;BME280;25173;50.430;18.926;2023-11-18T10:48:33;98716.28;;;4.74;77.55
39487;BME280;25173;50.430;18.926;2023-11-18T10:51:36;98730.34;;;4.76;77.28
39487;BME280;25173;50.430;18.926;2023-11-18T10:54:50;98744.97;;;4.68;76.31
39487;BME280;25173;50.430;18.926;2023-11-18T10:57:54;98751.75;;;4.53;75.71
39487;BME280;25173;50.430;18.926;2023-11-18T11:00:55;98753.09;;;4.44;75.61
39487;BME280;25173;50.430;18.926;2023-11-18T11:04:00;98746.03;;;4.43;76.23
39487;BME280;25173;50.430;18.926;2023-11-18T11:07:04;98752.19;;;4.50;76.04
39487;BME280;25173;50.430;18.926;2023-11-18T11:10:06;98748.81;;;4.54;76.51
39487;BME280;25173;50.430;18.926;2023-11-18T11:13:08;98752.91;;;4.63;76.49
39487;BME280;25173;50.430;18.926;2023-11-18T11:16:13;98762.94;;;4.75;76.28
39487;BME280;25173;50.430;18.926;2023-11-18T11:19:36;98759.59;;;4.79;76.10
39487;BME280;25173;50.430;18.926;2023-11-18T11:23:11;98755.41;;;4.83;75.75
39487;BME280;25173;50.430;18.926;2023-11-18T11:29:47;98765.91;;;4.73;74.65
39487;BME280;25173;50.430;18.926;2023-11-18T11:32:52;98763.63;;;4.70;75.12
39487;BME280;25173;50.430;18.926;2023-11-18T11:35:55;98763.78;;;4.75;75.09
39487;BME280;25173;50.430;18.926;2023-11-18T11:38:59;98772.06;;;4.80;75.27
39487;BME280;25173;50.430;18.926;2023-11-18T11:42:02;98773.59;;;4.69;74.19
39487;BME280;25173;50.430;18.926;2023-11-18T11:45:03;98767.66;;;4.61;74.66
39487;BME280;25173;50.430;18.926;2023-11-18T11:48:06;98780.75;;;4.57;74.27
39487;BME280;25173;50.430;18.926;2023-11-18T11:54:30;98801.06;;;4.60;74.80
39487;BME280;25173;50.430;18.926;2023-11-18T11:57:38;98805.63;;;4.59;74.57
39487;BME280;25173;50.430;18.926;2023-11-18T12:00:39;98799.81;;;4.62;74.82
39487;BME280;25173;50.430;18.926;2023-11-18T12:03:42;98807.28;;;4.60;74.34
39487;BME280;25173;50.430;18.926;2023-11-18T12:06:44;98812.16;;;4.52;74.50
39487;BME280;25173;50.430;18.926;2023-11-18T12:09:46;98811.59;;;4.43;73.90
39487;BME280;25173;50.430;18.926;2023-11-18T12:12:48;98812.00;;;4.40;74.29
39487;BME280;25173;50.430;18.926;2023-11-18T12:15:53;98818.22;;;4.41;74.66
39487;BME280;25173;50.430;18.926;2023-11-18T12:19:30;98817.34;;;4.47;74.54
39487;BME280;25173;50.430;18.926;2023-11-18T12:23:02;98818.59;;;4.51;74.63
39487;BME280;25173;50.430;18.926;2023-11-18T12:26:37;98812.53;;;4.55;74.71
39487;BME280;25173;50.430;18.926;2023-11-18T12:29:42;98822.47;;;4.55;74.50
39487;BME280;25173;50.430;18.926;2023-11-18T12:36:13;98827.72;;;4.50;74.32
39487;BME280;25173;50.430;18.926;2023-11-18T12:42:59;98837.19;;;4.59;74.34
39487;BME280;25173;50.430;18.926;2023-11-18T12:49:07;98845.13;;;4.79;74.74
39487;BME280;25173;50.430;18.926;2023-11-18T12:52:15;98840.44;;;4.92;74.91
39487;BME280;25173;50.430;18.926;2023-11-18T12:55:20;98847.66;;;4.98;74.36
39487;BME280;25173;50.430;18.926;2023-11-18T12:58:20;98842.19;;;5.05;74.32
39487;BME280;25173;50.430;18.926;2023-11-18T13:01:23;98844.81;;;5.12;74.34
39487;BME280;25173;50.430;18.926;2023-11-18T13:04:25;98859.66;;;5.02;73.24
39487;BME280;25173;50.430;18.926;2023-11-18T13:07:27;98865.13;;;4.96;73.82
39487;BME280;25173;50.430;18.926;2023-11-18T13:10:28;98859.75;;;4.89;73.25
39487;BME280;25173;50.430;18.926;2023-11-18T13:13:29;98852.81;;;4.75;73.20
39487;BME280;25173;50.430;18.926;2023-11-18T13:16:32;98862.69;;;4.63;73.49
39487;BME280;25173;50.430;18.926;2023-11-18T13:19:33;98874.56;;;4.55;73.92
39487;BME280;25173;50.430;18.926;2023-11-18T13:22:35;98870.41;;;4.53;74.10
39487;BME280;25173;50.430;18.926;2023-11-18T13:25:36;98879.53;;;4.58;74.64
39487;BME280;25173;50.430;18.926;2023-11-18T13:28:40;98870.38;;;4.59;73.96
39487;BME280;25173;50.430;18.926;2023-11-18T13:31:42;98885.31;;;4.62;74.17
39487;BME280;25173;50.430;18.926;2023-11-18T13:34:43;98885.97;;;4.57;74.24
39487;BME280;25173;50.430;18.926;2023-11-18T13:37:47;98890.28;;;4.65;74.51
39487;BME280;25173;50.430;18.926;2023-11-18T13:40:48;98891.53;;;4.62;73.87
39487;BME280;25173;50.430;18.926;2023-11-18T13:43:49;98887.38;;;4.60;74.23
39487;BME280;25173;50.430;18.926;2023-11-18T13:46:49;98899.41;;;4.64;74.25
39487;BME280;25173;50.430;18.926;2023-11-18T13:49:50;98900.66;;;4.61;74.36
39487;BME280;25173;50.430;18.926;2023-11-18T13:52:51;98900.59;;;4.68;74.37
39487;BME280;25173;50.430;18.926;2023-11-18T13:55:51;98899.47;;;4.82;74.78
39487;BME280;25173;50.430;18.926;2023-11-18T13:58:52;98899.59;;;4.94;74.42
39487;BME280;25173;50.430;18.926;2023-11-18T14:01:55;98898.50;;;5.01;73.96
39487;BME280;25173;50.430;18.926;2023-11-18T14:04:56;98908.84;;;5.04;73.93
39487;BME280;25173;50.430;18.926;2023-11-18T14:07:57;98914.84;;;5.06;73.85
39487;BME280;25173;50.430;18.926;2023-11-18T14:11:08;98917.41;;;5.01;73.21
39487;BME280;25173;50.430;18.926;2023-11-18T14:14:10;98917.06;;;4.91;73.40
39487;BME280;25173;50.430;18.926;2023-11-18T14:17:10;98901.31;;;4.88;73.84
39487;BME280;25173;50.430;18.926;2023-11-18T14:20:11;98900.44;;;4.94;73.70
39487;BME280;25173;50.430;18.926;2023-11-18T14:23:14;98913.09;;;4.94;73.56
39487;BME280;25173;50.430;18.926;2023-11-18T14:26:14;98916.34;;;5.02;73.82
39487;BME280;25173;50.430;18.926;2023-11-18T14:29:15;98917.78;;;5.05;73.68
39487;BME280;25173;50.430;18.926;2023-11-18T14:32:16;98910.78;;;4.97;72.77
39487;BME280;25173;50.430;18.926;2023-11-18T14:35:16;98910.03;;;4.84;73.00
39487;BME280;25173;50.430;18.926;2023-11-18T14:38:17;98909.44;;;4.82;73.33
39487;BME280;25173;50.430;18.926;2023-11-18T14:41:19;98916.53;;;4.76;72.86
39487;BME280;25173;50.430;18.926;2023-11-18T14:44:25;98914.94;;;4.68;73.11
39487;BME280;25173;50.430;18.926;2023-11-18T14:47:26;98912.44;;;4.67;73.57
39487;BME280;25173;50.430;18.926;2023-11-18T14:50:26;98918.44;;;4.69;73.32
39487;BME280;25173;50.430;18.926;2023-11-18T14:53:27;98913.63;;;4.78;73.86
39487;BME280;25173;50.430;18.926;2023-11-18T14:56:28;98915.91;;;4.81;73.37
39487;BME280;25173;50.430;18.926;2023-11-18T14:59:29;98918.34;;;4.89;73.73
39487;BME280;25173;50.430;18.926;2023-11-18T15:02:30;98935.91;;;4.98;73.51
39487;BME280;25173;50.430;18.926;2023-11-18T15:05:31;98937.91;;;5.09;73.49
39487;BME280;25173;50.430;18.926;2023-11-18T15:08:32;98933.28;;;5.16;73.39
39487;BME280;25173;50.430;18.926;2023-11-18T15:11:32;98930.88;;;5.26;73.13
39487;BME280;25173;50.430;18.926;2023-11-18T15:14:34;98929.47;;;5.24;72.54
39487;BME280;25173;50.430;18.926;2023-11-18T15:17:35;98932.44;;;5.16;72.39
39487;BME280;25173;50.430;18.926;2023-11-18T15:20:41;98930.75;;;4.96;71.99
39487;BME280;25173;50.430;18.926;2023-11-18T15:23:43;98933.75;;;4.75;72.32
39487;BME280;25173;50.430;18.926;2023-11-18T15:26:44;98933.44;;;4.65;73.19
39487;BME280;25173;50.430;18.926;2023-11-18T15:29:44;98929.25;;;4.69;73.53
39487;BME280;25173;50.430;18.926;2023-11-18T15:32:50;98943.72;;;4.75;73.12
39487;BME280;25173;50.430;18.926;2023-11-18T15:35:50;98946.56;;;4.86;73.66
39487;BME280;25173;50.430;18.926;2023-11-18T15:38:51;98956.91;;;4.96;73.04
39487;BME280;25173;50.430;18.926;2023-11-18T15:41:51;98951.53;;;4.89;72.83
39487;BME280;25173;50.430;18.926;2023-11-18T15:44:52;98955.28;;;4.88;72.83
39487;BME280;25173;50.430;18.926;2023-11-18T15:47:54;98959.81;;;4.94;73.01
39487;BME280;25173;50.430;18.926;2023-11-18T15:50:55;98960.59;;;5.01;72.44
39487;BME280;25173;50.430;18.926;2023-11-18T15:53:59;98973.78;;;4.85;71.82
39487;BME280;25173;50.430;18.926;2023-11-18T15:57:01;98970.91;;;4.80;72.20
39487;BME280;25173;50.430;18.926;2023-11-18T16:00:05;98968.16;;;4.86;72.72
39487;BME280;25173;50.430;18.926;2023-11-18T16:03:21;98962.84;;;5.04;72.68
39487;BME280;25173;50.430;18.926;2023-11-18T16:06:23;98966.03;;;5.20;72.63
39487;BME280;25173;50.430;18.926;2023-11-18T16:09:24;98959.53;;;5.27;71.75
39487;BME280;25173;50.430;18.926;2023-11-18T16:12:26;98954.34;;;5.32;72.09
39487;BME280;25173;50.430;18.926;2023-11-18T16:15:29;98960.31;;;5.34;71.30
39487;BME280;25173;50.430;18.926;2023-11-18T16:18:30;98953.03;;;5.35;71.42
39487;BME280;25173;50.430;18.926;2023-11-18T16:21:31;98965.66;;;5.41;71.59
39487;BME280;25173;50.430;18.926;2023-11-18T16:24:32;98961.63;;;5.50;71.29
39487;BME280;25173;50.430;18.926;2023-11-18T16:27:32;98970.63;;;5.44;70.40